Map

Track Data

SID SEASON NUMBER BASIN SUBBASIN NAME ISO_TIME NATURE LAT LON WMO_WIND WMO_PRES WMO_AGENCY TRACK_TYPE DIST2LAND LANDFALL IFLAG USA_AGENCY USA_ATCF_ID USA_LAT USA_LON USA_RECORD USA_STATUS USA_WIND USA_PRES USA_SSHS USA_R34_NE USA_R34_SE USA_R34_SW USA_R34_NW USA_R50_NE USA_R50_SE USA_R50_SW USA_R50_NW USA_R64_NE USA_R64_SE USA_R64_SW USA_R64_NW USA_POCI USA_ROCI USA_RMW USA_EYE TOKYO_LAT TOKYO_LON TOKYO_GRADE TOKYO_WIND TOKYO_PRES TOKYO_R50_DIR TOKYO_R50_LONG TOKYO_R50_SHORT TOKYO_R30_DIR TOKYO_R30_LONG TOKYO_R30_SHORT TOKYO_LAND CMA_LAT CMA_LON CMA_CAT CMA_WIND CMA_PRES HKO_LAT HKO_LON HKO_CAT HKO_WIND HKO_PRES NEWDELHI_LAT NEWDELHI_LON NEWDELHI_GRADE NEWDELHI_WIND NEWDELHI_PRES NEWDELHI_CI NEWDELHI_DP NEWDELHI_POCI REUNION_LAT REUNION_LON REUNION_TYPE REUNION_WIND REUNION_PRES REUNION_TNUM REUNION_CI REUNION_RMW REUNION_R34_NE REUNION_R34_SE REUNION_R34_SW REUNION_R34_NW REUNION_R50_NE REUNION_R50_SE REUNION_R50_SW REUNION_R50_NW REUNION_R64_NE REUNION_R64_SE REUNION_R64_SW REUNION_R64_NW BOM_LAT BOM_LON BOM_TYPE BOM_WIND BOM_PRES BOM_TNUM BOM_CI BOM_RMW BOM_R34_NE BOM_R34_SE BOM_R34_SW BOM_R34_NW BOM_R50_NE BOM_R50_SE BOM_R50_SW BOM_R50_NW BOM_R64_NE BOM_R64_SE BOM_R64_SW BOM_R64_NW BOM_ROCI BOM_POCI BOM_EYE BOM_POS_METHOD BOM_PRES_METHOD NADI_LAT NADI_LON NADI_CAT NADI_WIND NADI_PRES WELLINGTON_LAT WELLINGTON_LON WELLINGTON_WIND WELLINGTON_PRES DS824_LAT DS824_LON DS824_STAGE DS824_WIND DS824_PRES TD9636_LAT TD9636_LON TD9636_STAGE TD9636_WIND TD9636_PRES TD9635_LAT TD9635_LON TD9635_WIND TD9635_PRES TD9635_ROCI NEUMANN_LAT NEUMANN_LON NEUMANN_CLASS NEUMANN_WIND NEUMANN_PRES MLC_LAT MLC_LON MLC_CLASS MLC_WIND MLC_PRES USA_GUST BOM_GUST BOM_GUST_PER REUNION_GUST REUNION_GUST_PER USA_SEAHGT USA_SEARAD_NE USA_SEARAD_SE USA_SEARAD_SW USA_SEARAD_NW STORM_SPEED STORM_DIR
1975255N20251 1975 92 EP MM NOT_NAMED 1975-09-12 00:00:00 NR 19.5000 -109.500 main 381 381 O_________O___ jtwc_ep EP131975 19.5000 -109.500 25 -1 19.5000 -109.500 1 25 0 0
1975255N20251 1975 92 EP MM NOT_NAMED 1975-09-12 03:00:00 NR 19.5000 -109.500 main 381 381 P_________P___ EP131975 19.5000 -109.500 24 -1 19.5000 -109.500 1 25 0 0
1975255N20251 1975 92 EP MM NOT_NAMED 1975-09-12 06:00:00 NR 19.5000 -109.500 main 381 381 O_________P___ jtwc_ep EP131975 19.5000 -109.500 24 -1 19.5000 -109.500 1 25 0 0
1975255N20251 1975 92 EP MM NOT_NAMED 1975-09-12 09:00:00 NR 19.5000 -109.500 main 381 381 P_________P___ EP131975 19.5000 -109.500 24 -1 19.5000 -109.500 1 25 0 0
1975255N20251 1975 92 EP MM NOT_NAMED 1975-09-12 12:00:00 NR 19.5000 -109.500 main 381 381 O_________O___ jtwc_ep EP131975 19.5000 -109.500 24 -1 19.5000 -109.500 1 25 0 0
1975255N20251 1975 92 EP MM NOT_NAMED 1975-09-12 15:00:00 NR 19.5000 -109.500 main 381 381 P_________P___ EP131975 19.5000 -109.500 25 -1 19.5000 -109.500 1 26 0 0
1975255N20251 1975 92 EP MM NOT_NAMED 1975-09-12 18:00:00 NR 19.5000 -109.500 main 381 381 O_________P___ jtwc_ep EP131975 19.5000 -109.500 27 -1 19.5000 -109.500 1 27 0 0
1975255N20251 1975 92 EP MM NOT_NAMED 1975-09-12 21:00:00 NR 19.5000 -109.500 main 381 381 P_________P___ EP131975 19.5000 -109.500 28 -1 19.5000 -109.500 1 28 0 0
1975255N20251 1975 92 EP MM NOT_NAMED 1975-09-13 00:00:00 NR 19.5000 -109.500 main 381 381 O_________O___ jtwc_ep EP131975 19.5000 -109.500 29 -1 19.5000 -109.500 1 30 0 0
1975255N20251 1975 92 EP MM NOT_NAMED 1975-09-13 03:00:00 NR 19.5000 -109.500 main 381 381 P_________P___ EP131975 19.5000 -109.500 29 -1 19.5000 -109.500 1 30 0 0
1975255N20251 1975 92 EP MM NOT_NAMED 1975-09-13 06:00:00 NR 19.5000 -109.500 main 381 381 O_________P___ jtwc_ep EP131975 19.5000 -109.500 30 -1 19.5000 -109.500 1 30 0 0
1975255N20251 1975 92 EP MM NOT_NAMED 1975-09-13 09:00:00 NR 19.5000 -109.500 main 381 381 P_________P___ EP131975 19.5000 -109.500 30 -1 19.5000 -109.500 1 30 0 0
1975255N20251 1975 92 EP MM NOT_NAMED 1975-09-13 12:00:00 NR 19.5000 -109.500 main 381 381 O_________O___ jtwc_ep EP131975 19.5000 -109.500 30 -1 19.5000 -109.500 1 30 0 0
1975255N20251 1975 92 EP MM NOT_NAMED 1975-09-13 15:00:00 NR 19.4898 -109.500 main 381 381 P_________P___ EP131975 19.5000 -109.500 30 -1 19.4797 -109.500 1 30 0 0
1975255N20251 1975 92 EP MM NOT_NAMED 1975-09-13 18:00:00 NR 19.4813 -109.500 main 381 381 O_________P___ jtwc_ep EP131975 19.5000 -109.500 30 -1 19.4625 -109.500 1 30 0 0
1975255N20251 1975 92 EP MM NOT_NAMED 1975-09-13 21:00:00 NR 19.4783 -109.500 main 381 381 P_________P___ EP131975 19.4925 -109.500 30 -1 19.4641 -109.500 1 30 0 0
1975255N20251 1975 92 EP MM NOT_NAMED 1975-09-14 00:00:00 NR 19.5000 -109.500 main 381 381 O_________O___ jtwc_ep EP131975 19.5000 -109.500 30 -1 19.5000 -109.500 1 30 1 38
1975255N20251 1975 92 EP MM NOT_NAMED 1975-09-14 03:00:00 NR 19.5319 -109.458 main 381 371 P_________P___ EP131975 19.5200 -109.500 30 -1 19.5439 -109.416 1 30 1 29
1975255N20251 1975 92 EP MM NOT_NAMED 1975-09-14 06:00:00 NR 19.6145 -109.422 main 371 349 O_________P___ jtwc_ep EP131975 19.6000 -109.500 30 -1 19.6291 -109.345 1 30 2 15
1975255N20251 1975 92 EP MM NOT_NAMED 1975-09-14 09:00:00 NR 19.7610 -109.396 main 349 325 P_________P___ EP131975 19.7474 -109.440 30 -1 19.7747 -109.351 1 30 4 350
1975255N20251 1975 92 EP MM NOT_NAMED 1975-09-14 12:00:00 NR 20.0000 -109.500 main 325 290 O_________O___ jtwc_ep EP131975 20.0000 -109.500 30 -1 20.0000 -109.500 1 30 7 326
1975255N20251 1975 92 EP MM NOT_NAMED 1975-09-14 15:00:00 NR 20.3640 -109.835 main 279 236 P_________P___ EP131975 20.3699 -109.803 28 -1 20.3582 -109.868 1 28 11 315
1975255N20251 1975 92 EP MM NOT_NAMED 1975-09-14 18:00:00 NR 20.7930 -110.341 main 236 207 O_________P___ jtwc_ep EP131975 20.8000 -110.300 27 -1 20.7861 -110.382 1 27 14 310
1975255N20251 1975 92 EP MM NOT_NAMED 1975-09-14 21:00:00 NR 21.2293 -110.954 main 216 205 P_________P___ EP131975 21.2378 -110.927 26 -1 21.2207 -110.980 1 26 14 305
1975255N20251 1975 92 EP MM NOT_NAMED 1975-09-15 00:00:00 NR 21.6000 -111.600 main 219 219 O_________O___ jtwc_ep EP131975 21.6000 -111.600 25 -1 21.6000 -111.600 1 25 13 297
1975255N20251 1975 92 EP MM NOT_NAMED 1975-09-15 03:00:00 NR 21.8037 -112.171 main 257 257 P_________P___ EP131975 21.7797 -112.166 25 -1 21.8277 -112.177 1 25 11 288
1975255N20251 1975 92 EP MM NOT_NAMED 1975-09-15 06:00:00 NR 21.9477 -112.727 main 294 292 O_________P___ jtwc_ep EP131975 21.9000 -112.700 25 -1 21.9954 -112.754 1 25 11 287
1975255N20251 1975 92 EP MM NOT_NAMED 1975-09-15 09:00:00 NR 22.1127 -113.289 main 308 304 P_________P___ EP131975 22.0850 -113.273 25 -1 22.1403 -113.305 1 25 11 290
1975255N20251 1975 92 EP MM NOT_NAMED 1975-09-15 12:00:00 NR 22.3000 -113.800 main 319 315 O_________O___ jtwc_ep EP131975 22.3000 -113.800 25 -1 22.3000 -113.800 1 25 10 295
1975255N20251 1975 92 EP MM NOT_NAMED 1975-09-15 15:00:00 NR 22.5231 -114.229 main 325 323 P_________P___ EP131975 22.5423 -114.238 25 -1 22.5038 -114.221 1 25 9 303
1975255N20251 1975 92 EP MM NOT_NAMED 1975-09-15 18:00:00 NR 22.7736 -114.590 main 330 330 O_________P___ jtwc_ep EP131975 22.8000 -114.600 25 -1 22.7472 -114.581 1 25 8 309
1975255N20251 1975 92 EP MM NOT_NAMED 1975-09-15 21:00:00 NR 23.0349 -114.906 main 340 333 P_________P___ EP131975 23.0526 -114.912 25 -1 23.0171 -114.900 1 25 8 313
1975255N20251 1975 92 EP MM NOT_NAMED 1975-09-16 00:00:00 NR 23.3000 -115.200 main 347 O_________O___ jtwc_ep EP131975 23.3000 -115.200 25 -1 23.3000 -115.200 1 25 8 315

About IBTrACS Database

This database is a web-friendly format of International Best Track Archive for Climate Stewardship (IBTrACS), a global best track data archive curated by NOAA dating back to 1842.

Updated: 2021-12-01